Aigle, Switzerland
Current Conditions -  °F | °C
As of 6:50 AM on Sunday 23 Nov 2014 (Local Time) from LSMS Reporting Station
Broken Clouds Broken Clouds  
Wind Chill: 38°   Ceiling: 17000
Heat Index: 41°   Visibility: 6mi
Dew Point: 36°   Wind: 5mph
Humidity: 81%   Direction: 90°E
Pressure: 30.21"   Gusts: NA
Location:  46.32°N, 6.95°E
Report Text: LSMS 230550Z AUTO 09004KT 050V110 9999NDV BKN170 05/02 Q1023 RMK WHT
Loading
Personal Weather Stations






























Interactive Weather Map New forecast layout! Learn more

10-Day Weather Forecast

Advertisements
Track Severe Weather on mobile